Air Navigation Services of Czech Republic
Airport: LKTB Updated:  25.07.2017 12:08:11  UTC
 METAR LKTB 25.07. 12:00 ...
METAR LKTB 251200Z 28012KT 9999 FEW044 20/10 Q1005 NOSIG RMK REG QNH 1000=
 TAF LKTB 25.07. 11:00 ...
TAF LKTB 251100Z 2512/2618 26012KT 9999 SCT037      TEMPO 2512/2517 31014G24KT 9999 -SHRA BKN030      BECMG 2517/2519 CAVOK      BECMG 2607/2609 SCT040      PROB30 TEMPO 2612/2617 26016G26KT 7000 TSRA SCT033CB=